METAR Data
IDs: Format: Raw Decoded Include TAF

Data at: 1700 UTC 03 Dec 2021

WMKP 031630Z 01004KT 330V040 8000 FEW025 26/23 Q1013 NOSIG